Flight Track Log - Related Links

Times and Time Zones

All times are in EDT time to prevent confusion due to time zone crossing. See the EJA380 flight status page for this flight to view local times or setup timezone preferences in your user account.

Time Position Orientation Groundspeed Altitude Reporting Facility
EDT Latitude Longitude Course Direction KTS MPH feet Rate Location/Type
Tue 06:02:47 PM 42.3947 -122.8797 165° South 165 190 2,800  Level Seattle Center
Tue 06:03:48 PM 42.4639 -122.8439 21° North 279 321 6,600 3,934 Climbing Seattle Center
Tue 06:04:49 PM 42.4628 -122.7458 91° East 305 351 10,800 3,148 Climbing Seattle Center
Tue 06:05:50 PM 42.3856 -122.7586 187° South 298 343 13,000 1,082 Climbing Seattle Center
Tue 06:06:51 PM 42.2986 -122.8275 210° Southwest 362 417 13,000  Level Seattle Center
Tue 06:07:53 PM 42.2094 -122.8828 205° Southwest 359 413 13,000  Level Seattle Center
Tue 06:08:00 PM 41.7751 -122.6544 165° South  Level Estimated
Tue 06:08:54 PM 42.1078 -122.8739 176° South 367 422 13,000  Level Seattle Center
Tue 06:09:55 PM 42.0050 -122.8633 176° South 370 426 13,000  Level Seattle Center
Tue 06:10:56 PM 41.9053 -122.8525 175° South 361 415 13,000 -49 Level Seattle Center
Tue 06:11:57 PM 41.8064 -122.8422 176° South 359 413 12,900 -49 Descending Seattle Center
Tue 06:12:58 PM 41.7019 -122.8328 176° South 373 429 12,900 51 Level Seattle Center
Tue 06:13:54 PM 41.6025 -122.8250 177° South 370 426 13,000 51 Climbing Oakland Center
Tue 06:14:55 PM 41.4986 -122.8133 175° South 373 429 13,000  Level Oakland Center
Tue 06:15:56 PM 41.3931 -122.7889 170° South 383 441 13,000  Level Oakland Center
Tue 06:17:03 PM 41.2728 -122.7314 160° South 383 441 13,000  Level Seattle Center
Tue 06:18:04 PM 41.1711 -122.6881 162° South 384 442 13,000  Level Seattle Center
Tue 06:19:00 PM 41.0900 -122.6544 163° South 384 442 13,000  Level Oakland Center
Tue 06:20:02 PM 40.9697 -122.5983 161° South 383 441 13,000  Level Oakland Center
Tue 06:21:04 PM 40.8736 -122.5514 160° South 375 432 13,000  Level Oakland Center
Tue 06:22:04 PM 40.7811 -122.5067 160° South 364 419 13,000  Level Oakland Center
Tue 06:23:06 PM 40.6853 -122.4617 160° South 362 417 13,000  Level Oakland Center
Tue 06:24:07 PM 40.5825 -122.4128 160° South 383 441 13,000 -49 Level Oakland Center
Tue 06:25:08 PM 40.4844 -122.3678 161° South 374 430 12,900 -244 Descending Oakland Center
Tue 06:26:10 PM 40.3875 -122.3219 160° South 370 426 12,500 -439 Descending Oakland Center
Tue 06:27:11 PM 40.2906 -122.2767 160° South 376 433 12,000 -492 Descending Oakland Center
Tue 06:28:12 PM 40.1892 -122.2275 160° South 390 449 11,500 -488 Descending Oakland Center
Tue 06:29:14 PM 40.0886 -122.1822 161° South 370 426 11,000 -488 Descending Oakland Center
Tue 06:30:15 PM 39.9956 -122.1403 161° South 357 411 10,500 -541 Descending Oakland Center
Tue 06:31:16 PM 39.9144 -122.1033 161° South 321 369 9,900 -541 Descending Oakland Center
Tue 06:32:17 PM 39.8394 -122.0672 160° South 288 331 9,400 -488 Descending Oakland Center
Tue 06:33:19 PM 39.7667 -122.0336 160° South 279 321 8,900 -537 Descending Oakland Center
Tue 06:34:20 PM 39.6808 -121.9931 160° South 273 314 8,300 -541 Descending Oakland Center
Tue 06:35:21 PM 39.6081 -121.9603 161° South 276 318 7,800 -488 Descending Oakland Center
Tue 06:36:23 PM 39.5375 -121.9275 160° South 272 313 7,300 -537 Descending Oakland Center
Tue 06:37:24 PM 39.4639 -121.8947 161° South 273 314 6,700 -590 Descending Oakland Center
Tue 06:38:25 PM 39.3914 -121.8608 160° South 277 319 6,100 -590 Descending Oakland Center
Tue 06:39:26 PM 39.3197 -121.8303 162° South 275 316 5,500 -537 Descending Oakland Center
Tue 06:40:28 PM 39.2483 -121.7967 160° South 273 314 5,000 -244 Descending Oakland Center
Tue 06:41:29 PM 39.1778 -121.7650 161° South 271 312 5,000  Level Oakland Center
Tue 06:42:30 PM 39.1042 -121.7322 161° South 277 319 5,000  Level Oakland Center
Tue 06:43:32 PM 39.0292 -121.6994 161° South 284 327 5,000 -195 Level Oakland Center
Tue 06:44:33 PM 38.9542 -121.6669 161° South 285 328 4,600 -639 Descending Oakland Center
Tue 06:45:34 PM 38.8783 -121.6369 163° South 264 304 3,700 -1,024 Descending Oakland Center
Tue 06:46:36 PM 38.8175 -121.6128 163° South 232 267 2,500 -1,065 Descending Oakland Center
Tue 06:47:21 PM 38.7833 -121.6000 164° South 137 158 1,800 -800 Descending Northern Cal TRACON
Tue 06:48:21 PM 38.7500 -121.6000 180° South 112 129 1,100 -480 Descending Northern Cal TRACON
Tue 06:50:41 PM 38.6881 -121.5997 180° South 122 140 200 -386 Descending Oakland Center
Tue 06:52:00 PM 38.6833 -121.5833 169° South  Level FlightAware Approximate

Login

Don't have an account? Register now (free) for customized features, flight alerts, and more!